Time;durP1;ratioP1;P1;durP2;ratioP2;P2;SDS_P1;SDS_P2;PMS_P1;PMS_P2;Temp;Humidity;BMP_temperature;BMP_pressure;BME280_temperature;BME280_humidity;BME280_pressure;Samples;Min_cycle;Max_cycle;Signal;HPM_P1;HPM_P2
2022/08/01 00:00:31;;;;;;;;;;;;;;;17.29;63.15;100273.88;1636913;87;21944;-79
2022/08/01 00:02:59;;;;;;;;;;;;;;;17.28;63.24;100269.53;1629469;86;20206;-79
2022/08/01 00:05:25;;;;;;;;;;;;;;;17.26;63.31;100267.58;1610809;88;20216;-79
2022/08/01 00:07:50;;;;;;;;;;;;;;;17.24;63.45;100265.61;1630485;87;20712;-79
2022/08/01 00:10:16;;;;;;;;;;;;;;;17.23;63.51;100263.98;1604606;88;20249;-79
2022/08/01 00:12:42;;;;;;;;;;;;;;;17.22;63.58;100260.97;1624547;88;21108;-79
2022/08/01 00:15:09;;;;;;;;;;;;;;;17.18;63.65;100254.35;1624616;88;20149;-79
2022/08/01 00:17:35;;;;;;;;;;;;;;;17.16;63.77;100255.10;1624930;87;20459;-79
2022/08/01 00:20:03;;;;;;;;;;;;;;;17.16;63.86;100254.27;1624747;88;20177;-79
2022/08/01 00:22:31;;;;;;;;;;;;;;;17.13;63.93;100247.45;1622463;88;20240;-79
2022/08/01 00:24:56;;;;;;;;;;;;;;;17.12;64.01;100253.05;1615695;88;21087;-79
2022/08/01 00:27:22;;;;;;;;;;;;;;;17.11;64.10;100246.83;1622751;88;20227;-79
2022/08/01 00:29:48;;;;;;;;;;;;;;;17.10;64.14;100248.41;1624687;88;20201;-79
2022/08/01 00:32:14;;;;;;;;;;;;;;;17.08;64.19;100246.43;1623699;88;20177;-79
2022/08/01 00:34:40;;;;;;;;;;;;;;;17.07;64.29;100245.60;1624847;88;20225;-79
2022/08/01 00:37:06;;;;;;;;;;;;;;;17.06;64.35;100239.93;1624885;88;21183;-79
2022/08/01 00:39:32;;;;;;;;;;;;;;;17.07;64.41;100240.21;1623470;88;20245;-79
2022/08/01 00:41:59;;;;;;;;;;;;;;;17.09;64.45;100241.36;1624759;88;20171;-79
2022/08/01 00:44:26;;;;;;;;;;;;;;;17.10;64.54;100241.13;1624952;88;20177;-79
2022/08/01 00:46:52;;;;;;;;;;;;;;;17.11;64.61;100241.95;1620491;88;20162;-79
2022/08/01 00:49:18;;;;;;;;;;;;;;;17.12;64.65;100244.45;1624314;86;21933;-79
2022/08/01 00:51:44;;;;;;;;;;;;;;;17.14;64.69;100246.39;1624602;88;20567;-79
2022/08/01 00:54:09;;;;;;;;;;;;;;;17.16;64.75;100242.98;1617466;88;20288;-79
2022/08/01 00:56:35;;;;;;;;;;;;;;;17.18;64.80;100242.22;1624997;87;20169;-79
2022/08/01 00:59:01;;;;;;;;;;;;;;;17.19;64.84;100239.84;1636266;87;20250;-80
2022/08/01 01:01:27;;;;;;;;;;;;;;;17.21;64.87;100240.44;1628074;87;21766;-79
2022/08/01 01:03:53;;;;;;;;;;;;;;;17.20;64.92;100234.77;1655966;86;20297;-79
2022/08/01 01:06:31;;;;;;;;;;;;;;;17.19;64.97;100234.45;1654972;85;20291;-79
2022/08/01 01:09:16;;;;;;;;;;;;;;;17.20;64.99;100232.59;1660949;84;21087;-79
2022/08/01 01:11:49;;;;;;;;;;;;;;;17.22;65.03;100231.84;1647804;85;20207;-79
2022/08/01 01:14:46;;;;;;;;;;;;;;;17.22;65.07;100231.84;1634821;85;21655;-79
2022/08/01 01:17:14;;;;;;;;;;;;;;;17.19;65.13;100229.06;1638358;85;20437;-80
2022/08/01 01:19:43;;;;;;;;;;;;;;;17.19;65.16;100230.92;1647996;86;20163;-80
2022/08/01 01:22:43;;;;;;;;;;;;;;;17.19;65.21;100234.97;1647247;85;20224;-80
2022/08/01 01:25:21;;;;;;;;;;;;;;;17.15;65.27;100235.92;1647748;87;20164;-79
2022/08/01 01:27:57;;;;;;;;;;;;;;;17.13;65.31;100233.98;1646708;86;21058;-80
2022/08/01 01:30:23;;;;;;;;;;;;;;;17.13;65.34;100231.80;1650481;86;20311;-79
2022/08/01 01:32:50;;;;;;;;;;;;;;;17.11;65.38;100225.27;1654110;85;20251;-80
2022/08/01 01:35:20;;;;;;;;;;;;;;;17.10;65.43;100224.95;1655551;86;20223;-80
2022/08/01 01:37:46;;;;;;;;;;;;;;;17.11;65.46;100219.05;1656087;86;20204;-80
2022/08/01 01:40:11;;;;;;;;;;;;;;;17.09;65.51;100217.94;1655134;86;21171;-79
2022/08/01 01:42:37;;;;;;;;;;;;;;;17.09;65.53;100216.59;1653698;86;20178;-80
2022/08/01 01:45:04;;;;;;;;;;;;;;;17.09;65.57;100210.37;1656189;86;20774;-79
2022/08/01 01:47:30;;;;;;;;;;;;;;;17.07;65.62;100213.27;1654537;86;20156;-79
2022/08/01 01:49:56;;;;;;;;;;;;;;;17.06;65.66;100206.25;1644507;86;20197;-79
2022/08/01 01:52:22;;;;;;;;;;;;;;;17.06;65.68;100204.90;1655567;86;21184;-79
2022/08/01 01:54:49;;;;;;;;;;;;;;;17.07;65.72;100203.84;1654722;85;20339;-79
2022/08/01 01:57:15;;;;;;;;;;;;;;;17.06;65.76;100204.06;1651812;85;20485;-79
2022/08/01 01:59:41;;;;;;;;;;;;;;;17.05;65.79;100199.20;1622612;88;20222;-80
2022/08/01 02:02:06;;;;;;;;;;;;;;;17.04;65.85;100201.58;1624797;87;20193;-79
2022/08/01 02:04:33;;;;;;;;;;;;;;;17.05;65.88;100203.23;1624909;88;21156;-79
2022/08/01 02:06:59;;;;;;;;;;;;;;;17.04;65.96;100200.23;1614349;88;20219;-79
2022/08/01 02:09:25;;;;;;;;;;;;;;;17.04;65.99;100197.53;1623783;88;20312;-80
2022/08/01 02:11:50;;;;;;;;;;;;;;;17.04;66.04;100197.53;1624908;88;20846;-79
2022/08/01 02:14:17;;;;;;;;;;;;;;;17.02;66.10;100199.63;1624519;88;20245;-79
2022/08/01 02:16:47;;;;;;;;;;;;;;;17.02;66.13;100196.11;1624371;88;21088;-80
2022/08/01 02:19:14;;;;;;;;;;;;;;;17.02;66.20;100198.28;1625683;88;20178;-79
2022/08/01 02:21:45;;;;;;;;;;;;;;;17.02;66.22;100196.94;1622734;86;20171;-79
2022/08/01 02:24:31;;;;;;;;;;;;;;;17.01;66.28;100199.32;1625087;88;20333;-79
2022/08/01 02:27:00;;;;;;;;;;;;;;;17.04;66.34;100198.05;1617921;86;20511;-79
2022/08/01 02:29:32;;;;;;;;;;;;;;;17.01;66.39;100197.97;1633798;87;21173;-80
2022/08/01 02:31:58;;;;;;;;;;;;;;;17.01;66.44;100200.66;1623875;88;20147;-79
2022/08/01 02:34:24;;;;;;;;;;;;;;;17.02;66.50;100190.20;1621977;88;20702;-79
2022/08/01 02:36:51;;;;;;;;;;;;;;;17.01;66.54;100184.50;1624636;88;20177;-79
2022/08/01 02:39:18;;;;;;;;;;;;;;;16.98;66.55;100176.86;1621900;86;20163;-80
2022/08/01 02:41:47;;;;;;;;;;;;;;;16.95;66.59;100174.60;1621954;86;21132;-79
2022/08/01 02:44:18;;;;;;;;;;;;;;;16.94;66.66;100177.81;1621795;86;20537;-79
2022/08/01 02:46:47;;;;;;;;;;;;;;;16.94;66.69;100176.98;1621808;86;20163;-80
2022/08/01 02:49:13;;;;;;;;;;;;;;;16.97;66.71;100176.55;1621873;87;20160;-79
2022/08/01 02:51:39;;;;;;;;;;;;;;;17.02;66.76;100178.08;1624059;86;20200;-79
2022/08/01 02:54:05;;;;;;;;;;;;;;;17.02;66.80;100181.29;1633842;87;21731;-79
2022/08/01 02:56:34;;;;;;;;;;;;;;;17.02;66.84;100178.08;1620612;88;20569;-79
2022/08/01 02:59:05;;;;;;;;;;;;;;;17.01;66.86;100176.42;1638113;85;20520;-79
2022/08/01 03:01:33;;;;;;;;;;;;;;;17.00;66.91;100176.11;1663958;85;20543;-79
2022/08/01 03:03:58;;;;;;;;;;;;;;;16.99;66.96;100178.52;1661727;85;20201;-79
2022/08/01 03:06:24;;;;;;;;;;;;;;;16.98;67.00;100176.86;1656955;85;20694;-79
2022/08/01 03:08:50;;;;;;;;;;;;;;;16.96;67.01;100177.06;1661473;86;20259;-79
2022/08/01 03:11:16;;;;;;;;;;;;;;;16.97;67.07;100180.59;1661118;85;20290;-79
2022/08/01 03:13:42;;;;;;;;;;;;;;;16.98;67.13;100187.63;1653569;86;20744;-79
2022/08/01 03:16:07;;;;;;;;;;;;;;;17.00;67.18;100197.66;1660834;86;20228;-79
2022/08/01 03:18:33;;;;;;;;;;;;;;;17.02;67.24;100194.24;1660982;85;21158;-79
2022/08/01 03:20:59;;;;;;;;;;;;;;;17.05;67.26;100192.46;1641629;86;20195;-80
2022/08/01 03:23:25;;;;;;;;;;;;;;;17.09;67.30;100194.20;1661462;85;20805;-79
2022/08/01 03:25:50;;;;;;;;;;;;;;;17.09;67.34;100196.37;1661159;86;20235;-79
2022/08/01 03:28:17;;;;;;;;;;;;;;;17.06;67.36;100194.64;1648511;85;20232;-79
2022/08/01 03:30:42;;;;;;;;;;;;;;;17.06;67.42;100196.81;1666673;86;21191;-79
2022/08/01 03:33:08;;;;;;;;;;;;;;;17.08;67.49;100195.23;1664962;86;20200;-80
2022/08/01 03:35:37;;;;;;;;;;;;;;;17.06;67.52;100192.77;1660168;85;20213;-80
2022/08/01 03:38:03;;;;;;;;;;;;;;;17.08;67.56;100194.72;1660677;86;20189;-79
2022/08/01 03:40:35;;;;;;;;;;;;;;;17.12;67.61;100193.76;1658858;86;20235;-79
2022/08/01 03:43:19;;;;;;;;;;;;;;;17.11;67.66;100192.09;1675328;85;21822;-79
2022/08/01 03:45:46;;;;;;;;;;;;;;;17.10;67.70;100191.27;1673245;85;20174;-80
2022/08/01 03:48:18;;;;;;;;;;;;;;;17.10;67.76;100188.58;1661787;85;20177;-79
2022/08/01 03:50:48;;;;;;;;;;;;;;;17.12;67.81;100185.16;1660887;85;20687;-79
2022/08/01 03:53:14;;;;;;;;;;;;;;;17.12;67.88;100181.12;1660104;85;20634;-80
2022/08/01 03:55:42;;;;;;;;;;;;;;;17.15;67.95;100183.37;1673531;84;21166;-79
2022/08/01 03:58:09;;;;;;;;;;;;;;;17.18;67.95;100182.93;1662299;84;20144;-79
2022/08/01 04:00:41;;;;;;;;;;;;;;;17.19;68.01;100184.59;1677015;84;20497;-79
2022/08/01 04:03:09;;;;;;;;;;;;;;;17.22;68.06;100182.80;1655606;85;20500;-79
2022/08/01 04:05:35;;;;;;;;;;;;;;;17.26;68.10;100188.06;1674397;84;20161;-79
2022/08/01 04:08:02;;;;;;;;;;;;;;;17.32;68.16;100189.88;1673875;85;21770;-79
2022/08/01 04:10:28;;;;;;;;;;;;;;;17.37;68.18;100187.37;1673923;85;20186;-79
2022/08/01 04:12:54;;;;;;;;;;;;;;;17.42;68.25;100194.78;1674201;84;20470;-79
2022/08/01 04:15:20;;;;;;;;;;;;;;;17.46;68.28;100195.99;1673598;85;20191;-80
2022/08/01 04:17:46;;;;;;;;;;;;;;;17.52;68.33;100195.66;1667287;84;20179;-80
2022/08/01 04:20:13;;;;;;;;;;;;;;;17.55;68.36;100199.26;1668003;84;21060;-79
2022/08/01 04:22:39;;;;;;;;;;;;;;;17.59;68.40;100203.20;1631251;86;20198;-79
2022/08/01 04:25:09;;;;;;;;;;;;;;;17.61;68.45;100201.92;1658458;85;20454;-79
2022/08/01 04:27:37;;;;;;;;;;;;;;;17.65;68.47;100203.66;1670865;85;20582;-80
2022/08/01 04:30:04;;;;;;;;;;;;;;;17.70;68.50;100203.28;1670225;84;20182;-79
2022/08/01 04:32:34;;;;;;;;;;;;;;;17.76;68.53;100205.64;1670025;85;20893;-79
2022/08/01 04:35:01;;;;;;;;;;;;;;;17.83;68.54;100201.02;1669606;85;20168;-80
2022/08/01 04:37:27;;;;;;;;;;;;;;;17.91;68.56;100204.23;1636052;86;20216;-79
2022/08/01 04:39:53;;;;;;;;;;;;;;;18.00;68.60;100195.34;1677897;85;20737;-80
2022/08/01 04:42:19;;;;;;;;;;;;;;;18.09;68.59;100195.34;1673391;84;20235;-80
2022/08/01 04:47:16;;;;;;;;;;;;;;;18.23;68.59;100203.59;1661981;83;20479;-79
2022/08/01 04:49:43;;;;;;;;;;;;;;;18.24;68.60;100207.95;1678114;83;20164;-78
2022/08/01 04:52:09;;;;;;;;;;;;;;;18.27;68.62;100203.97;1676645;83;20587;-80
2022/08/01 04:54:38;;;;;;;;;;;;;;;18.30;68.63;100198.95;1671224;84;20223;-80
2022/08/01 04:57:04;;;;;;;;;;;;;;;18.35;68.65;100201.81;1673500;84;21161;-79
2022/08/01 04:59:40;;;;;;;;;;;;;;;18.41;68.65;100204.13;1669940;84;20183;-81
2022/08/01 05:02:11;;;;;;;;;;;;;;;18.47;68.66;100203.24;1667383;84;20184;-80
2022/08/01 05:04:38;;;;;;;;;;;;;;;18.54;68.64;100205.89;1670186;84;20203;-81
2022/08/01 05:07:04;;;;;;;;;;;;;;;18.59;68.63;100207.38;1642031;85;20151;-80
2022/08/01 05:09:30;;;;;;;;;;;;;;;18.64;68.62;100210.23;1648987;85;21174;-80
2022/08/01 05:11:58;;;;;;;;;;;;;;;18.69;68.64;100199.55;1702225;82;20314;-80
2022/08/01 05:14:27;;;;;;;;;;;;;;;18.76;68.65;100206.52;1717614;82;20159;-80
2022/08/01 05:16:53;;;;;;;;;;;;;;;18.86;68.60;100207.32;1710034;82;20197;-80
2022/08/01 05:19:20;;;;;;;;;;;;;;;18.96;68.58;100203.57;1704230;81;20257;-80
2022/08/01 05:21:46;;;;;;;;;;;;;;;19.08;68.57;100209.83;1709006;81;21122;-80
2022/08/01 05:24:12;;;;;;;;;;;;;;;19.14;68.51;100210.25;1708219;81;20183;-80
2022/08/01 05:26:39;;;;;;;;;;;;;;;19.20;68.51;100209.35;1703861;82;20207;-81
2022/08/01 05:29:05;;;;;;;;;;;;;;;19.27;68.51;100211.44;1705461;82;20466;-80
2022/08/01 05:31:34;;;;;;;;;;;;;;;19.37;68.50;100221.68;1708188;81;20188;-81
2022/08/01 05:34:00;;;;;;;;;;;;;;;19.40;68.45;100217.16;1713285;82;21459;-80
2022/08/01 05:36:26;;;;;;;;;;;;;;;19.49;68.42;100209.58;1699539;83;20271;-80
2022/08/01 05:38:52;;;;;;;;;;;;;;;19.57;68.40;100214.63;1643855;85;20231;-81
2022/08/01 05:41:18;;;;;;;;;;;;;;;19.63;68.35;100212.36;1678723;83;20174;-80
2022/08/01 05:43:43;;;;;;;;;;;;;;;19.65;68.30;100206.17;1648586;85;20165;-80
2022/08/01 05:46:09;;;;;;;;;;;;;;;19.69;68.28;100212.25;1650028;85;21814;-80
2022/08/01 05:48:35;;;;;;;;;;;;;;;19.71;68.22;100213.34;1649056;85;20176;-80
2022/08/01 05:51:01;;;;;;;;;;;;;;;19.74;68.15;100211.52;1653664;85;20200;-80
2022/08/01 05:53:27;;;;;;;;;;;;;;;19.77;68.08;100209.17;1649307;85;20689;-80
2022/08/01 05:55:52;;;;;;;;;;;;;;;19.85;68.03;100207.48;1646380;85;20312;-81
2022/08/01 05:58:18;;;;;;;;;;;;;;;19.87;67.90;100214.85;1639909;85;21208;-81
2022/08/01 06:00:44;;;;;;;;;;;;;;;19.87;67.79;100219.44;1636008;85;20178;-80
2022/08/01 06:03:11;;;;;;;;;;;;;;;19.83;67.70;100215.02;1672531;84;20186;-80
2022/08/01 06:05:37;;;;;;;;;;;;;;;19.81;67.63;100221.19;1671171;84;20184;-81
2022/08/01 06:08:03;;;;;;;;;;;;;;;19.81;67.58;100220.36;1671283;84;20195;-80
2022/08/01 06:10:29;;;;;;;;;;;;;;;19.81;67.55;100220.36;1672820;84;21194;-80
2022/08/01 06:12:55;;;;;;;;;;;;;;;19.79;67.57;100228.73;1672226;84;20254;-80
2022/08/01 06:15:21;;;;;;;;;;;;;;;19.78;67.55;100227.59;1671974;84;20298;-80
2022/08/01 06:17:47;;;;;;;;;;;;;;;19.76;67.54;100225.66;1673815;84;20521;-80
2022/08/01 06:20:12;;;;;;;;;;;;;;;19.74;67.55;100225.05;1672537;85;20199;-80
2022/08/01 06:22:38;;;;;;;;;;;;;;;19.71;67.54;100228.23;1673175;84;21041;-81
2022/08/01 06:25:06;;;;;;;;;;;;;;;19.69;67.51;100236.59;1672472;84;20194;-80
2022/08/01 06:27:34;;;;;;;;;;;;;;;19.67;67.49;100235.98;1671961;84;20210;-81
2022/08/01 06:29:59;;;;;;;;;;;;;;;19.66;67.49;100236.24;1646918;85;20166;-80
2022/08/01 06:32:26;;;;;;;;;;;;;;;19.66;67.50;100238.95;1643804;85;20457;-80
2022/08/01 06:34:52;;;;;;;;;;;;;;;19.70;67.46;100245.55;1636002;86;21148;-81
2022/08/01 06:37:18;;;;;;;;;;;;;;;19.74;67.47;100239.94;1656833;84;20155;-80
2022/08/01 06:39:44;;;;;;;;;;;;;;;19.81;67.45;100240.13;1650172;84;20207;-80
2022/08/01 06:42:10;;;;;;;;;;;;;;;19.88;67.39;100238.13;1646370;85;20212;-80
2022/08/01 06:44:35;;;;;;;;;;;;;;;19.99;67.35;100247.32;1646037;84;20173;-81
2022/08/01 06:47:02;;;;;;;;;;;;;;;20.10;67.27;100252.44;1643745;85;21190;-80
2022/08/01 06:49:27;;;;;;;;;;;;;;;20.19;67.18;100245.11;1639894;85;20477;-80
2022/08/01 06:51:53;;;;;;;;;;;;;;;20.31;67.09;100256.77;1636262;85;20260;-80
2022/08/01 06:54:19;;;;;;;;;;;;;;;20.38;66.97;100253.41;1646000;85;20189;-81
2022/08/01 06:56:45;;;;;;;;;;;;;;;20.42;66.91;100246.45;1650924;85;20256;-80
2022/08/01 06:59:11;;;;;;;;;;;;;;;20.50;66.80;100248.51;1651299;85;21174;-81
2022/08/01 07:01:37;;;;;;;;;;;;;;;20.59;66.70;100251.13;1657996;85;20209;-80
2022/08/01 07:04:02;;;;;;;;;;;;;;;20.66;66.57;100254.53;1654111;84;20188;-81
2022/08/01 07:06:28;;;;;;;;;;;;;;;20.73;66.47;100248.45;1642441;85;20195;-81
2022/08/01 07:08:54;;;;;;;;;;;;;;;20.82;66.35;100252.45;1640495;86;20753;-81
2022/08/01 07:11:20;;;;;;;;;;;;;;;20.97;66.24;100250.58;1636480;85;21209;-80
2022/08/01 07:13:46;;;;;;;;;;;;;;;21.09;66.10;100246.74;1646502;85;20186;-81
2022/08/01 07:16:13;;;;;;;;;;;;;;;21.20;65.97;100249.97;1650511;85;20176;-80
2022/08/01 07:18:39;;;;;;;;;;;;;;;21.25;65.78;100245.98;1644275;84;20258;-80
2022/08/01 07:21:05;;;;;;;;;;;;;;;21.36;65.62;100249.17;1657533;84;20175;-80
2022/08/01 07:23:31;;;;;;;;;;;;;;;21.45;65.52;100255.57;1656985;84;21951;-81
2022/08/01 07:25:57;;;;;;;;;;;;;;;21.59;65.38;100260.98;1635333;85;20306;-81
2022/08/01 07:28:23;;;;;;;;;;;;;;;21.73;65.25;100257.70;1648797;85;20189;-82
2022/08/01 07:30:49;;;;;;;;;;;;;;;21.83;65.06;100251.61;1652732;85;20183;-82
2022/08/01 07:33:15;;;;;;;;;;;;;;;21.89;64.89;100254.69;1648628;85;20150;-81
2022/08/01 07:35:41;;;;;;;;;;;;;;;21.97;64.74;100258.38;1642087;85;21417;-81
2022/08/01 07:38:07;;;;;;;;;;;;;;;22.10;64.57;100255.31;1633572;87;20420;-81
2022/08/01 07:40:33;;;;;;;;;;;;;;;22.29;64.42;100258.06;1642862;85;20205;-81
2022/08/01 07:42:59;;;;;;;;;;;;;;;22.45;64.19;100256.92;1659050;85;20204;-81
2022/08/01 07:45:26;;;;;;;;;;;;;;;22.49;63.96;100259.41;1651105;85;20178;-80
2022/08/01 07:47:52;;;;;;;;;;;;;;;22.58;63.76;100259.27;1652776;85;21542;-81
2022/08/01 07:50:18;;;;;;;;;;;;;;;22.66;63.54;100258.84;1658208;85;20165;-80
2022/08/01 07:52:44;;;;;;;;;;;;;;;22.75;63.31;100250.55;1653260;85;20176;-81
2022/08/01 07:55:10;;;;;;;;;;;;;;;22.86;63.13;100254.51;1649889;85;20298;-81
2022/08/01 07:57:36;;;;;;;;;;;;;;;22.97;62.90;100260.89;1672451;85;20163;-81
2022/08/01 08:00:07;;;;;;;;;;;;;;;22.93;62.62;100258.39;1652929;85;21680;-81
2022/08/01 08:02:33;;;;;;;;;;;;;;;23.01;62.49;100256.56;1652878;85;20148;-81
2022/08/01 08:04:59;;;;;;;;;;;;;;;23.09;62.32;100252.56;1653363;85;20151;-82
2022/08/01 08:07:25;;;;;;;;;;;;;;;23.21;62.18;100260.88;1653138;85;20750;-80
2022/08/01 08:09:50;;;;;;;;;;;;;;;23.35;62.00;100266.20;1652119;85;20172;-81
2022/08/01 08:12:16;;;;;;;;;;;;;;;23.34;61.71;100263.73;1649490;85;21756;-80
2022/08/01 08:14:42;;;;;;;;;;;;;;;23.21;61.45;100273.13;1659535;85;20173;-80
2022/08/01 08:17:08;;;;;;;;;;;;;;;23.21;61.36;100277.21;1642885;85;20354;-80
2022/08/01 08:19:36;;;;;;;;;;;;;;;23.29;61.26;100271.86;1646351;84;21127;-80
2022/08/01 08:22:01;;;;;;;;;;;;;;;23.39;61.14;100270.06;1634813;85;20310;-79
2022/08/01 08:24:27;;;;;;;;;;;;;;;23.47;60.96;100273.43;1646980;85;22508;-81
2022/08/01 08:26:56;;;;;;;;;;;;;;;23.48;60.70;100276.41;1631718;86;20292;-82
2022/08/01 08:29:22;;;;;;;;;;;;;;;23.52;60.53;100276.19;1641437;85;20170;-81
2022/08/01 08:31:48;;;;;;;;;;;;;;;23.68;60.43;100276.62;1664998;84;21036;-81
2022/08/01 08:34:15;;;;;;;;;;;;;;;23.78;60.22;100277.54;1649357;85;20185;-81
2022/08/01 08:36:41;;;;;;;;;;;;;;;23.88;60.12;100274.07;1641337;85;22424;-82
2022/08/01 08:39:07;;;;;;;;;;;;;;;24.02;59.96;100272.55;1647103;85;20196;-82
2022/08/01 08:41:33;;;;;;;;;;;;;;;24.17;59.72;100277.33;1652240;85;20196;-80
2022/08/01 08:44:04;;;;;;;;;;;;;;;24.27;59.59;100268.67;1653456;85;20350;-80
2022/08/01 08:46:32;;;;;;;;;;;;;;;24.31;59.34;100272.48;1650976;85;20246;-80
2022/08/01 08:48:57;;;;;;;;;;;;;;;24.46;59.26;100270.94;1653389;85;22650;-80
2022/08/01 08:51:24;;;;;;;;;;;;;;;24.65;59.15;100267.52;1657854;85;20192;-80
2022/08/01 08:53:49;;;;;;;;;;;;;;;24.85;59.05;100268.17;1655393;85;20178;-79
2022/08/01 08:56:15;;;;;;;;;;;;;;;25.06;58.80;100267.16;1659521;85;20480;-79
2022/08/01 08:58:42;;;;;;;;;;;;;;;25.15;58.56;100268.30;1659345;85;20760;-80
2022/08/01 09:01:08;;;;;;;;;;;;;;;25.25;58.34;100271.59;1651953;85;21829;-80
2022/08/01 09:03:34;;;;;;;;;;;;;;;25.28;58.13;100267.77;1652006;85;20140;-81
2022/08/01 09:06:00;;;;;;;;;;;;;;;25.39;57.95;100267.25;1653200;85;20208;-80
2022/08/01 09:08:26;;;;;;;;;;;;;;;25.37;57.63;100253.60;1650993;85;20545;-80
2022/08/01 09:10:52;;;;;;;;;;;;;;;25.44;57.53;100264.51;1650234;85;20260;-80
2022/08/01 09:13:17;;;;;;;;;;;;;;;25.46;57.25;100258.79;1657998;85;21871;-81
2022/08/01 09:15:46;;;;;;;;;;;;;;;25.54;57.14;100266.48;1659699;85;20781;-80
2022/08/01 09:18:35;;;;;;;;;;;;;;;25.59;56.97;100270.03;1646372;85;20105;-81
2022/08/01 09:21:14;;;;;;;;;;;;;;;25.63;56.86;100270.31;1647977;85;20550;-81
2022/08/01 09:23:44;;;;;;;;;;;;;;;25.55;56.51;100273.56;1656961;85;20598;-81
2022/08/01 09:26:10;;;;;;;;;;;;;;;25.53;56.45;100275.77;1652275;85;21493;-81
2022/08/01 09:28:36;;;;;;;;;;;;;;;25.58;56.28;100281.25;1640937;85;20276;-80
2022/08/01 09:31:10;;;;;;;;;;;;;;;25.51;56.14;100275.23;1655458;85;20232;-81
2022/08/01 09:33:52;;;;;;;;;;;;;;;25.47;56.12;100274.92;1628830;86;20535;-81
2022/08/01 09:36:19;;;;;;;;;;;;;;;25.56;56.06;100277.95;1668217;83;20455;-81
2022/08/01 09:38:45;;;;;;;;;;;;;;;25.48;55.79;100278.44;1677427;83;21891;-81
2022/08/01 09:41:11;;;;;;;;;;;;;;;25.51;55.82;100277.95;1672552;85;20261;-81
2022/08/01 09:43:37;;;;;;;;;;;;;;;25.76;55.74;100278.78;1668211;84;20772;-80
2022/08/01 09:46:10;;;;;;;;;;;;;;;26.08;55.56;100283.97;1660835;84;20356;-79
2022/08/01 09:48:36;;;;;;;;;;;;;;;26.20;55.37;100273.61;1639824;85;20516;-81
2022/08/01 09:51:02;;;;;;;;;;;;;;;26.37;55.17;100272.48;1676155;84;21866;-81
2022/08/01 09:53:32;;;;;;;;;;;;;;;26.45;54.91;100275.48;1633178;86;20800;-81
2022/08/01 09:56:10;;;;;;;;;;;;;;;26.40;54.71;100270.55;1628993;85;20142;-79
2022/08/01 09:58:53;;;;;;;;;;;;;;;26.45;54.60;100263.72;1654383;86;20555;-80
2022/08/01 10:01:21;;;;;;;;;;;;;;;26.41;54.19;100261.26;1655628;85;20219;-80
2022/08/01 10:03:47;;;;;;;;;;;;;;;26.33;54.11;100256.63;1650397;85;21849;-80
2022/08/01 10:06:22;;;;;;;;;;;;;;;26.51;54.07;100263.97;1653007;85;20917;-81
2022/08/01 10:08:47;;;;;;;;;;;;;;;26.56;53.94;100266.70;1641522;85;20399;-81
2022/08/01 10:11:13;;;;;;;;;;;;;;;26.41;53.78;100261.26;1645757;85;20539;-81
2022/08/01 10:13:39;;;;;;;;;;;;;;;26.21;53.83;100261.56;1650946;85;20177;-82
2022/08/01 10:16:05;;;;;;;;;;;;;;;26.26;53.85;100261.56;1652406;85;21781;-81
2022/08/01 10:18:33;;;;;;;;;;;;;;;26.00;53.65;100257.18;1651190;85;20266;-81
2022/08/01 10:21:02;;;;;;;;;;;;;;;25.92;53.75;100259.66;1639715;85;20181;-81
2022/08/01 10:23:31;;;;;;;;;;;;;;;26.24;53.90;100256.94;1637528;85;20511;-81
2022/08/01 10:25:56;;;;;;;;;;;;;;;26.63;53.79;100257.65;1631064;86;20171;-81
2022/08/01 10:28:22;;;;;;;;;;;;;;;26.80;53.36;100260.86;1652206;85;21331;-80
2022/08/01 10:30:48;;;;;;;;;;;;;;;26.73;53.15;100258.43;1655070;85;20200;-81
2022/08/01 10:33:14;;;;;;;;;;;;;;;26.73;53.28;100251.59;1653710;85;20184;-81
2022/08/01 10:35:40;;;;;;;;;;;;;;;27.09;53.24;100259.09;1650813;85;20708;-81
2022/08/01 10:38:06;;;;;;;;;;;;;;;27.53;53.03;100254.20;1659907;84;20153;-81
2022/08/01 10:40:32;;;;;;;;;;;;;;;27.71;52.65;100261.73;1650225;85;21887;-81
2022/08/01 10:42:57;;;;;;;;;;;;;;;27.82;52.48;100256.45;1650540;85;20180;-80
2022/08/01 10:45:25;;;;;;;;;;;;;;;27.84;52.11;100255.59;1649348;87;20239;-81
2022/08/01 10:48:15;;;;;;;;;;;;;;;27.93;52.01;100251.69;1622165;86;20509;-80
2022/08/01 10:50:45;;;;;;;;;;;;;;;27.82;51.66;100259.19;1649057;86;20110;-80
2022/08/01 10:53:18;;;;;;;;;;;;;;;27.46;51.41;100260.55;1648359;85;21890;-80
2022/08/01 10:55:53;;;;;;;;;;;;;;;27.22;51.29;100258.48;1650324;85;20236;-80
2022/08/01 10:58:36;;;;;;;;;;;;;;;26.98;51.39;100250.69;1624547;86;20604;-80
2022/08/01 11:01:28;;;;;;;;;;;;;;;26.71;51.34;100264.72;1638742;86;21281;-80
2022/08/01 11:04:07;;;;;;;;;;;;;;;26.21;51.42;100253.36;1650188;87;20179;-80
2022/08/01 11:06:36;;;;;;;;;;;;;;;25.88;51.68;100259.39;1650369;87;21774;-80
2022/08/01 11:09:06;;;;;;;;;;;;;;;25.63;51.96;100255.28;1650308;87;20416;-80
2022/08/01 11:11:32;;;;;;;;;;;;;;;25.37;52.26;100265.89;1650434;87;20159;-80
2022/08/01 11:14:03;;;;;;;;;;;;;;;25.22;52.56;100278.41;1652520;85;20433;-80
2022/08/01 11:16:31;;;;;;;;;;;;;;;25.17;52.87;100276.20;1652585;85;20442;-80
2022/08/01 11:18:56;;;;;;;;;;;;;;;25.25;53.08;100280.60;1652856;85;22637;-80
2022/08/01 11:21:26;;;;;;;;;;;;;;;25.35;53.26;100277.06;1652537;85;20212;-80
2022/08/01 11:23:53;;;;;;;;;;;;;;;25.51;53.45;100271.92;1652567;85;20224;-80
2022/08/01 11:26:19;;;;;;;;;;;;;;;25.75;53.48;100266.78;1652823;85;20627;-80
2022/08/01 11:28:46;;;;;;;;;;;;;;;26.00;53.38;100266.75;1652647;85;20238;-80
2022/08/01 11:31:16;;;;;;;;;;;;;;;26.06;53.36;100272.50;1652799;85;22465;-80
2022/08/01 11:33:46;;;;;;;;;;;;;;;26.14;53.41;100273.30;1652595;85;20689;-80
2022/08/01 11:36:15;;;;;;;;;;;;;;;26.22;53.38;100271.41;1652606;85;20247;-81
2022/08/01 11:38:47;;;;;;;;;;;;;;;26.12;53.38;100270.58;1652569;85;20553;-80
2022/08/01 11:41:20;;;;;;;;;;;;;;;26.00;53.39;100275.52;1651907;85;20270;-80
2022/08/01 11:44:00;;;;;;;;;;;;;;;26.14;53.51;100282.86;1652608;85;21856;-80
2022/08/01 11:46:48;;;;;;;;;;;;;;;26.39;53.23;100277.14;1652666;85;20415;-80
2022/08/01 11:49:34;;;;;;;;;;;;;;;26.45;53.00;100270.02;1657556;85;20176;-80
2022/08/01 11:52:11;;;;;;;;;;;;;;;26.41;52.71;100281.23;1659236;85;20498;-80
2022/08/01 11:54:53;;;;;;;;;;;;;;;26.40;52.63;100278.22;1655194;85;20166;-80
2022/08/01 11:57:29;;;;;;;;;;;;;;;26.47;52.47;100269.72;1654644;85;21543;-80
2022/08/01 11:59:55;;;;;;;;;;;;;;;26.37;52.37;100275.21;1644702;85;20148;-80
2022/08/01 23:59:18;;;;;;;;;;;;;;;18.65;78.26;100685.98;1661405;83;87563;-82
